createdAt,value
2023-03-23T15:58:36.573Z,9.43
2023-03-23T16:01:27.275Z,8.97
2023-03-23T16:04:17.876Z,9.03
2023-03-23T16:07:07.246Z,8.77
2023-03-23T16:09:55.665Z,9.10
2023-03-23T16:12:45.708Z,9.73
2023-03-23T16:15:34.422Z,10.10
2023-03-23T16:18:23.697Z,9.40
2023-03-23T16:21:12.050Z,10.23
2023-03-23T16:24:00.489Z,9.17
2023-03-23T16:26:48.813Z,8.83
2023-03-23T16:29:59.821Z,10.50
2023-03-23T16:32:47.735Z,11.00
2023-03-23T16:35:36.145Z,9.40
2023-03-23T16:38:24.665Z,9.30
2023-03-23T16:41:13.050Z,8.90
2023-03-23T16:44:02.768Z,9.93
2023-03-23T16:46:52.499Z,9.70
2023-03-23T16:49:40.866Z,10.00
2023-03-23T16:52:29.329Z,9.30
2023-03-23T16:55:18.275Z,9.43
2023-03-23T16:58:16.421Z,9.07
2023-03-23T17:01:06.522Z,10.30
2023-03-23T17:03:56.480Z,9.47
2023-03-23T17:06:46.092Z,9.50
2023-03-23T17:09:35.045Z,10.60
2023-03-23T17:12:23.393Z,10.40
2023-03-23T17:15:12.868Z,10.13
2023-03-23T17:18:01.965Z,10.47
2023-03-23T17:20:53.571Z,9.50
2023-03-23T17:23:41.925Z,10.00
2023-03-23T17:26:30.621Z,10.90
2023-03-23T17:29:19.340Z,12.00
2023-03-23T17:32:07.705Z,10.77
2023-03-23T17:34:56.286Z,10.50
2023-03-23T17:37:46.000Z,10.30
2023-03-23T17:40:34.653Z,16.20
2023-03-23T17:43:23.013Z,10.70
2023-03-23T17:46:11.770Z,10.20
2023-03-23T17:49:00.119Z,10.03
2023-03-23T17:51:48.537Z,10.33
2023-03-23T17:54:38.241Z,10.10
2023-03-23T17:57:26.653Z,10.50
2023-03-23T18:00:16.206Z,11.03
2023-03-23T18:03:04.690Z,11.60
2023-03-23T18:05:59.241Z,10.77
2023-03-23T18:08:47.653Z,10.40
2023-03-23T18:11:37.389Z,10.73
2023-03-23T18:14:25.742Z,11.40
2023-03-23T18:17:14.315Z,10.93
2023-03-23T18:20:02.895Z,11.80
2023-03-23T18:22:51.442Z,11.67
2023-03-23T18:25:40.346Z,9.90
2023-03-23T18:28:31.651Z,10.33
2023-03-23T18:31:20.649Z,10.87
2023-03-23T18:34:09.079Z,10.83
2023-03-23T18:36:57.442Z,10.80
2023-03-23T18:39:45.809Z,10.97
2023-03-23T18:42:34.216Z,10.50
2023-03-23T18:45:23.983Z,10.67
2023-03-23T18:48:12.515Z,11.43
2023-03-23T18:51:01.782Z,10.97
2023-03-23T18:53:50.151Z,10.90
2023-03-23T18:56:38.663Z,10.60
2023-03-23T18:59:30.238Z,10.03
2023-03-23T19:02:20.950Z,11.53
2023-03-23T19:05:10.401Z,11.33
2023-03-23T19:07:58.950Z,10.70
2023-03-23T19:10:47.306Z,10.60
2023-03-23T19:13:37.077Z,11.17
2023-03-23T19:16:26.400Z,11.20
2023-03-23T19:19:16.586Z,10.80
2023-03-23T19:22:05.619Z,12.37
2023-03-23T19:24:54.017Z,10.80
2023-03-23T19:28:15.783Z,11.30
2023-03-23T19:30:54.431Z,11.43
2023-03-23T19:33:43.686Z,12.27
2023-03-23T19:36:34.087Z,10.93
2023-03-23T19:39:22.737Z,10.83
2023-03-23T19:42:11.800Z,11.13
2023-03-23T19:45:01.570Z,10.57
2023-03-23T19:47:49.962Z,10.87
2023-03-23T19:50:39.896Z,11.20
2023-03-23T19:53:29.915Z,11.20
2023-03-23T19:56:21.561Z,12.37
2023-03-23T19:59:10.925Z,11.57
2023-03-23T20:01:59.343Z,11.30
2023-03-23T20:04:48.031Z,11.30
2023-03-23T20:07:40.810Z,11.70
2023-03-23T20:10:34.575Z,12.03
2023-03-23T20:13:23.001Z,11.97
2023-03-23T20:16:11.800Z,12.00
2023-03-23T20:19:00.626Z,11.17
2023-03-23T20:21:49.194Z,11.57
2023-03-23T20:24:38.353Z,10.80
2023-03-23T20:27:28.444Z,11.87
2023-03-23T20:30:18.818Z,12.03
2023-03-23T20:33:07.329Z,12.57
2023-03-23T20:35:55.949Z,12.63
2023-03-23T20:38:44.751Z,12.27
2023-03-23T20:41:35.892Z,12.20
2023-03-23T20:44:29.446Z,12.20
2023-03-23T20:47:17.847Z,12.30
2023-03-23T20:50:07.640Z,11.60
2023-03-23T20:52:56.879Z,10.93
2023-03-23T20:55:45.724Z,12.87
2023-03-23T20:58:34.877Z,11.60
2023-03-23T21:01:24.657Z,11.83
2023-03-23T21:04:17.919Z,11.50
2023-03-23T21:07:08.653Z,11.50
2023-03-23T21:09:58.061Z,12.90
2023-03-23T21:12:46.454Z,12.33
2023-03-23T21:15:35.124Z,13.73
2023-03-23T21:18:24.863Z,11.30
2023-03-23T21:21:14.934Z,13.27
2023-03-23T21:24:03.521Z,11.37
2023-03-23T21:26:51.890Z,12.77
2023-03-23T21:29:40.230Z,11.80
2023-03-23T21:32:28.928Z,11.77
2023-03-23T21:35:18.884Z,11.90
2023-03-23T21:38:07.399Z,12.17
2023-03-23T21:40:56.817Z,12.93
2023-03-23T21:43:45.809Z,12.53
2023-03-23T21:46:34.218Z,12.60
2023-03-23T21:49:22.586Z,12.27
2023-03-23T21:52:14.421Z,12.00
2023-03-23T21:55:04.678Z,12.20
2023-03-23T21:57:53.018Z,14.03
2023-03-23T22:00:41.506Z,11.83
2023-03-23T22:03:32.778Z,11.73
2023-03-23T22:06:39.815Z,11.90
2023-03-23T22:09:30.324Z,12.40
2023-03-23T22:12:19.504Z,12.07
2023-03-23T22:15:09.881Z,13.80
2023-03-23T22:17:58.350Z,12.63
2023-03-23T22:20:47.853Z,12.33
2023-03-23T22:23:36.808Z,12.90
2023-03-23T22:26:28.234Z,12.53
2023-03-23T22:29:17.216Z,12.83
2023-03-23T22:32:05.716Z,12.43
2023-03-23T22:34:54.035Z,13.73
2023-03-23T22:37:42.454Z,12.00
2023-03-23T22:40:31.440Z,12.03
2023-03-23T22:43:21.261Z,11.67
2023-03-23T22:46:09.672Z,13.70
2023-03-23T22:48:58.128Z,12.53
2023-03-23T22:51:46.838Z,12.00
2023-03-23T22:54:35.320Z,13.60
2023-03-23T22:57:23.685Z,12.77
2023-03-23T23:00:15.510Z,14.20
2023-03-23T23:03:03.931Z,13.67
2023-03-23T23:05:53.851Z,12.10
2023-03-23T23:08:42.857Z,13.23
2023-03-23T23:11:31.393Z,12.80
2023-03-23T23:14:19.999Z,13.43
2023-03-23T23:17:10.319Z,12.23
2023-03-23T23:19:59.713Z,13.90
2023-03-23T23:22:48.154Z,12.93
2023-03-23T23:25:36.954Z,12.87
2023-03-23T23:28:25.604Z,13.40
2023-03-23T23:31:22.346Z,12.83
2023-03-23T23:34:14.076Z,13.73
2023-03-23T23:37:02.674Z,14.40
2023-03-23T23:39:51.697Z,13.27
2023-03-23T23:42:40.093Z,13.90
2023-03-23T23:45:28.695Z,14.93
2023-03-23T23:48:17.129Z,12.97
2023-03-23T23:51:08.046Z,13.10
2023-03-23T23:53:58.909Z,12.97
2023-03-23T23:56:47.958Z,12.27
2023-03-23T23:59:36.741Z,13.93
